sensor_id;sensor_type;location;lat;lon;timestamp;P1;durP1;ratioP1;P2;durP2;ratioP2
10013;SDS011;45684;48.358;10.746;2023-08-12T00:00:24;5.10;;;4.70;;
10013;SDS011;45684;48.358;10.746;2023-08-12T00:02:52;5.07;;;4.57;;
10013;SDS011;45684;48.358;10.746;2023-08-12T00:05:20;5.43;;;5.13;;
10013;SDS011;45684;48.358;10.746;2023-08-12T00:07:49;5.20;;;4.80;;
10013;SDS011;45684;48.358;10.746;2023-08-12T00:10:17;5.30;;;4.97;;
10013;SDS011;45684;48.358;10.746;2023-08-12T00:12:45;5.50;;;5.10;;
10013;SDS011;45684;48.358;10.746;2023-08-12T00:15:14;4.93;;;4.63;;
10013;SDS011;45684;48.358;10.746;2023-08-12T00:17:42;4.70;;;4.40;;
10013;SDS011;45684;48.358;10.746;2023-08-12T00:20:10;5.33;;;4.93;;
10013;SDS011;45684;48.358;10.746;2023-08-12T00:22:39;5.27;;;4.87;;
10013;SDS011;45684;48.358;10.746;2023-08-12T00:25:07;5.23;;;4.93;;
10013;SDS011;45684;48.358;10.746;2023-08-12T00:27:35;4.93;;;4.53;;
10013;SDS011;45684;48.358;10.746;2023-08-12T00:30:05;5.37;;;4.87;;
10013;SDS011;45684;48.358;10.746;2023-08-12T00:32:35;4.93;;;4.63;;
10013;SDS011;45684;48.358;10.746;2023-08-12T00:35:04;5.60;;;5.10;;
10013;SDS011;45684;48.358;10.746;2023-08-12T00:37:32;5.77;;;5.27;;
10013;SDS011;45684;48.358;10.746;2023-08-12T00:40:00;5.20;;;4.80;;
10013;SDS011;45684;48.358;10.746;2023-08-12T00:42:30;5.17;;;4.73;;
10013;SDS011;45684;48.358;10.746;2023-08-12T00:44:58;5.13;;;4.77;;
10013;SDS011;45684;48.358;10.746;2023-08-12T00:47:27;5.50;;;5.10;;
10013;SDS011;45684;48.358;10.746;2023-08-12T00:49:58;5.70;;;5.30;;
10013;SDS011;45684;48.358;10.746;2023-08-12T00:52:26;4.90;;;4.60;;
10013;SDS011;45684;48.358;10.746;2023-08-12T00:54:54;5.30;;;4.90;;
10013;SDS011;45684;48.358;10.746;2023-08-12T00:57:22;5.43;;;4.90;;
10013;SDS011;45684;48.358;10.746;2023-08-12T00:59:50;5.60;;;5.00;;
10013;SDS011;45684;48.358;10.746;2023-08-12T01:02:18;5.67;;;5.27;;
10013;SDS011;45684;48.358;10.746;2023-08-12T01:04:46;5.30;;;4.90;;
10013;SDS011;45684;48.358;10.746;2023-08-12T01:07:15;4.73;;;4.40;;
10013;SDS011;45684;48.358;10.746;2023-08-12T01:09:43;5.07;;;4.67;;
10013;SDS011;45684;48.358;10.746;2023-08-12T01:12:12;5.03;;;4.60;;
10013;SDS011;45684;48.358;10.746;2023-08-12T01:14:45;5.20;;;4.80;;
10013;SDS011;45684;48.358;10.746;2023-08-12T01:17:23;5.07;;;4.67;;
10013;SDS011;45684;48.358;10.746;2023-08-12T01:19:54;6.17;;;4.80;;
10013;SDS011;45684;48.358;10.746;2023-08-12T01:22:24;4.87;;;4.47;;
10013;SDS011;45684;48.358;10.746;2023-08-12T01:24:55;5.20;;;4.90;;
10013;SDS011;45684;48.358;10.746;2023-08-12T01:27:23;5.27;;;4.87;;
10013;SDS011;45684;48.358;10.746;2023-08-12T01:29:51;5.57;;;5.10;;
10013;SDS011;45684;48.358;10.746;2023-08-12T01:32:21;5.93;;;5.33;;
10013;SDS011;45684;48.358;10.746;2023-08-12T01:34:54;5.63;;;5.20;;
10013;SDS011;45684;48.358;10.746;2023-08-12T01:37:29;5.20;;;4.80;;
10013;SDS011;45684;48.358;10.746;2023-08-12T01:40:01;5.60;;;5.10;;
10013;SDS011;45684;48.358;10.746;2023-08-12T01:42:32;5.77;;;4.80;;
10013;SDS011;45684;48.358;10.746;2023-08-12T01:45:01;5.70;;;4.80;;
10013;SDS011;45684;48.358;10.746;2023-08-12T01:47:29;5.27;;;4.80;;
10013;SDS011;45684;48.358;10.746;2023-08-12T01:49:57;5.60;;;5.10;;
10013;SDS011;45684;48.358;10.746;2023-08-12T01:52:25;5.27;;;4.80;;
10013;SDS011;45684;48.358;10.746;2023-08-12T01:54:53;6.23;;;5.20;;
10013;SDS011;45684;48.358;10.746;2023-08-12T01:57:23;5.40;;;4.90;;
10013;SDS011;45684;48.358;10.746;2023-08-12T01:59:51;5.10;;;4.63;;
10013;SDS011;45684;48.358;10.746;2023-08-12T02:02:19;5.40;;;5.03;;
10013;SDS011;45684;48.358;10.746;2023-08-12T02:04:47;6.47;;;5.10;;
10013;SDS011;45684;48.358;10.746;2023-08-12T02:07:15;6.03;;;5.10;;
10013;SDS011;45684;48.358;10.746;2023-08-12T02:09:43;5.40;;;5.07;;
10013;SDS011;45684;48.358;10.746;2023-08-12T02:12:11;5.30;;;4.90;;
10013;SDS011;45684;48.358;10.746;2023-08-12T02:14:40;5.50;;;5.10;;
10013;SDS011;45684;48.358;10.746;2023-08-12T02:17:08;5.77;;;5.23;;
10013;SDS011;45684;48.358;10.746;2023-08-12T02:19:36;5.23;;;4.83;;
10013;SDS011;45684;48.358;10.746;2023-08-12T02:22:04;5.33;;;4.83;;
10013;SDS011;45684;48.358;10.746;2023-08-12T02:24:32;5.73;;;4.70;;
10013;SDS011;45684;48.358;10.746;2023-08-12T02:27:00;5.10;;;4.80;;
10013;SDS011;45684;48.358;10.746;2023-08-12T02:29:28;5.43;;;5.00;;
10013;SDS011;45684;48.358;10.746;2023-08-12T02:31:57;5.20;;;4.90;;
10013;SDS011;45684;48.358;10.746;2023-08-12T02:34:25;5.30;;;4.90;;
10013;SDS011;45684;48.358;10.746;2023-08-12T02:36:53;5.90;;;5.30;;
10013;SDS011;45684;48.358;10.746;2023-08-12T02:39:20;5.60;;;5.20;;
10013;SDS011;45684;48.358;10.746;2023-08-12T02:41:48;5.40;;;5.10;;
10013;SDS011;45684;48.358;10.746;2023-08-12T02:44:16;5.10;;;4.80;;
10013;SDS011;45684;48.358;10.746;2023-08-12T02:46:44;5.80;;;5.20;;
10013;SDS011;45684;48.358;10.746;2023-08-12T02:49:14;5.17;;;4.87;;
10013;SDS011;45684;48.358;10.746;2023-08-12T02:51:41;5.60;;;5.23;;
10013;SDS011;45684;48.358;10.746;2023-08-12T02:54:09;6.50;;;5.40;;
10013;SDS011;45684;48.358;10.746;2023-08-12T02:56:37;5.80;;;5.40;;
10013;SDS011;45684;48.358;10.746;2023-08-12T02:59:05;5.40;;;5.00;;
10013;SDS011;45684;48.358;10.746;2023-08-12T03:01:33;5.27;;;4.87;;
10013;SDS011;45684;48.358;10.746;2023-08-12T03:04:01;5.63;;;5.30;;
10013;SDS011;45684;48.358;10.746;2023-08-12T03:06:30;6.10;;;5.40;;
10013;SDS011;45684;48.358;10.746;2023-08-12T03:08:58;5.30;;;4.90;;
10013;SDS011;45684;48.358;10.746;2023-08-12T03:11:26;5.27;;;4.97;;
10013;SDS011;45684;48.358;10.746;2023-08-12T03:13:56;5.23;;;4.93;;
10013;SDS011;45684;48.358;10.746;2023-08-12T03:16:25;6.53;;;5.67;;
10013;SDS011;45684;48.358;10.746;2023-08-12T03:18:54;6.30;;;5.90;;
10013;SDS011;45684;48.358;10.746;2023-08-12T03:21:22;6.10;;;5.50;;
10013;SDS011;45684;48.358;10.746;2023-08-12T03:23:52;6.40;;;5.80;;
10013;SDS011;45684;48.358;10.746;2023-08-12T03:26:20;5.80;;;5.33;;
10013;SDS011;45684;48.358;10.746;2023-08-12T03:28:48;5.73;;;5.33;;
10013;SDS011;45684;48.358;10.746;2023-08-12T03:31:18;5.97;;;5.57;;
10013;SDS011;45684;48.358;10.746;2023-08-12T03:33:47;5.90;;;5.40;;
10013;SDS011;45684;48.358;10.746;2023-08-12T03:36:14;5.90;;;5.50;;
10013;SDS011;45684;48.358;10.746;2023-08-12T03:38:42;5.83;;;5.43;;
10013;SDS011;45684;48.358;10.746;2023-08-12T03:41:16;5.70;;;5.23;;
10013;SDS011;45684;48.358;10.746;2023-08-12T03:43:45;5.90;;;5.50;;
10013;SDS011;45684;48.358;10.746;2023-08-12T03:46:14;6.30;;;5.50;;
10013;SDS011;45684;48.358;10.746;2023-08-12T03:48:43;6.00;;;5.70;;
10013;SDS011;45684;48.358;10.746;2023-08-12T03:51:11;6.40;;;5.90;;
10013;SDS011;45684;48.358;10.746;2023-08-12T03:53:39;5.93;;;5.57;;
10013;SDS011;45684;48.358;10.746;2023-08-12T03:56:07;6.17;;;5.67;;
10013;SDS011;45684;48.358;10.746;2023-08-12T03:58:36;6.47;;;5.87;;
10013;SDS011;45684;48.358;10.746;2023-08-12T04:01:05;5.90;;;5.40;;
10013;SDS011;45684;48.358;10.746;2023-08-12T04:03:33;5.77;;;5.37;;
10013;SDS011;45684;48.358;10.746;2023-08-12T04:06:01;5.80;;;5.30;;
10013;SDS011;45684;48.358;10.746;2023-08-12T04:08:29;5.83;;;5.33;;
10013;SDS011;45684;48.358;10.746;2023-08-12T04:10:58;6.03;;;5.53;;
10013;SDS011;45684;48.358;10.746;2023-08-12T04:13:26;6.00;;;5.60;;
10013;SDS011;45684;48.358;10.746;2023-08-12T04:15:55;5.90;;;5.43;;
10013;SDS011;45684;48.358;10.746;2023-08-12T04:18:24;6.37;;;5.87;;
10013;SDS011;45684;48.358;10.746;2023-08-12T04:20:52;6.00;;;5.60;;
10013;SDS011;45684;48.358;10.746;2023-08-12T04:23:22;6.20;;;5.83;;
10013;SDS011;45684;48.358;10.746;2023-08-12T04:25:52;6.30;;;5.40;;
10013;SDS011;45684;48.358;10.746;2023-08-12T04:28:23;6.13;;;5.60;;
10013;SDS011;45684;48.358;10.746;2023-08-12T04:30:52;5.57;;;5.27;;
10013;SDS011;45684;48.358;10.746;2023-08-12T04:33:22;5.83;;;5.43;;
10013;SDS011;45684;48.358;10.746;2023-08-12T04:35:52;5.57;;;5.10;;
10013;SDS011;45684;48.358;10.746;2023-08-12T04:38:21;5.90;;;5.60;;
10013;SDS011;45684;48.358;10.746;2023-08-12T04:40:52;5.53;;;5.23;;
10013;SDS011;45684;48.358;10.746;2023-08-12T04:43:21;5.70;;;5.40;;
10013;SDS011;45684;48.358;10.746;2023-08-12T04:45:49;5.50;;;5.20;;
10013;SDS011;45684;48.358;10.746;2023-08-12T04:48:18;5.97;;;5.57;;
10013;SDS011;45684;48.358;10.746;2023-08-12T04:50:47;6.07;;;5.57;;
10013;SDS011;45684;48.358;10.746;2023-08-12T04:53:17;6.10;;;5.60;;
10013;SDS011;45684;48.358;10.746;2023-08-12T04:55:45;5.60;;;5.20;;
10013;SDS011;45684;48.358;10.746;2023-08-12T04:58:17;6.30;;;5.50;;
10013;SDS011;45684;48.358;10.746;2023-08-12T05:00:45;6.47;;;5.83;;
10013;SDS011;45684;48.358;10.746;2023-08-12T05:03:13;6.27;;;5.87;;
10013;SDS011;45684;48.358;10.746;2023-08-12T05:05:41;6.60;;;6.10;;
10013;SDS011;45684;48.358;10.746;2023-08-12T05:08:11;6.67;;;6.17;;
10013;SDS011;45684;48.358;10.746;2023-08-12T05:10:39;6.63;;;6.23;;
10013;SDS011;45684;48.358;10.746;2023-08-12T05:13:08;6.83;;;6.33;;
10013;SDS011;45684;48.358;10.746;2023-08-12T05:15:36;6.80;;;6.20;;
10013;SDS011;45684;48.358;10.746;2023-08-12T05:18:05;6.70;;;6.10;;
10013;SDS011;45684;48.358;10.746;2023-08-12T05:20:33;6.43;;;5.93;;
10013;SDS011;45684;48.358;10.746;2023-08-12T05:23:01;7.00;;;6.43;;
10013;SDS011;45684;48.358;10.746;2023-08-12T05:25:30;6.57;;;5.97;;
10013;SDS011;45684;48.358;10.746;2023-08-12T05:27:58;6.40;;;5.90;;
10013;SDS011;45684;48.358;10.746;2023-08-12T05:30:26;6.47;;;5.97;;
10013;SDS011;45684;48.358;10.746;2023-08-12T05:32:54;6.77;;;6.27;;
10013;SDS011;45684;48.358;10.746;2023-08-12T05:35:22;7.00;;;6.57;;
10013;SDS011;45684;48.358;10.746;2023-08-12T05:37:50;7.20;;;6.70;;
10013;SDS011;45684;48.358;10.746;2023-08-12T05:40:17;7.20;;;6.60;;
10013;SDS011;45684;48.358;10.746;2023-08-12T05:42:47;7.67;;;7.07;;
10013;SDS011;45684;48.358;10.746;2023-08-12T05:45:14;7.53;;;6.83;;
10013;SDS011;45684;48.358;10.746;2023-08-12T05:47:42;7.40;;;6.73;;
10013;SDS011;45684;48.358;10.746;2023-08-12T05:50:10;6.77;;;6.27;;
10013;SDS011;45684;48.358;10.746;2023-08-12T05:52:38;7.23;;;6.63;;
10013;SDS011;45684;48.358;10.746;2023-08-12T05:55:06;7.23;;;6.60;;
10013;SDS011;45684;48.358;10.746;2023-08-12T05:57:34;7.07;;;6.57;;
10013;SDS011;45684;48.358;10.746;2023-08-12T06:00:04;6.73;;;6.33;;
10013;SDS011;45684;48.358;10.746;2023-08-12T06:02:39;6.63;;;6.23;;
10013;SDS011;45684;48.358;10.746;2023-08-12T06:05:07;6.93;;;6.43;;
10013;SDS011;45684;48.358;10.746;2023-08-12T06:07:36;7.00;;;6.50;;
10013;SDS011;45684;48.358;10.746;2023-08-12T06:10:04;8.10;;;7.50;;
10013;SDS011;45684;48.358;10.746;2023-08-12T06:12:32;8.30;;;7.70;;
10013;SDS011;45684;48.358;10.746;2023-08-12T06:15:00;7.37;;;6.97;;
10013;SDS011;45684;48.358;10.746;2023-08-12T06:17:29;7.83;;;7.33;;
10013;SDS011;45684;48.358;10.746;2023-08-12T06:19:57;7.63;;;7.10;;
10013;SDS011;45684;48.358;10.746;2023-08-12T06:22:25;6.60;;;6.20;;
10013;SDS011;45684;48.358;10.746;2023-08-12T06:24:53;7.10;;;6.53;;
10013;SDS011;45684;48.358;10.746;2023-08-12T06:27:21;7.00;;;6.57;;
10013;SDS011;45684;48.358;10.746;2023-08-12T06:29:49;7.67;;;7.17;;
10013;SDS011;45684;48.358;10.746;2023-08-12T06:32:17;8.37;;;7.60;;
10013;SDS011;45684;48.358;10.746;2023-08-12T06:34:46;7.23;;;6.73;;
10013;SDS011;45684;48.358;10.746;2023-08-12T06:37:14;7.43;;;7.03;;
10013;SDS011;45684;48.358;10.746;2023-08-12T06:39:42;7.00;;;6.60;;
10013;SDS011;45684;48.358;10.746;2023-08-12T06:42:09;6.97;;;6.57;;
10013;SDS011;45684;48.358;10.746;2023-08-12T06:44:38;7.83;;;7.33;;
10013;SDS011;45684;48.358;10.746;2023-08-12T06:47:06;6.87;;;6.47;;
10013;SDS011;45684;48.358;10.746;2023-08-12T06:49:34;7.28;;;6.78;;
10013;SDS011;45684;48.358;10.746;2023-08-12T06:52:03;7.10;;;6.70;;
10013;SDS011;45684;48.358;10.746;2023-08-12T06:54:31;6.63;;;6.30;;
10013;SDS011;45684;48.358;10.746;2023-08-12T06:56:59;7.35;;;6.85;;
10013;SDS011;45684;48.358;10.746;2023-08-12T06:59:27;7.60;;;7.10;;
10013;SDS011;45684;48.358;10.746;2023-08-12T07:01:55;6.93;;;6.53;;
10013;SDS011;45684;48.358;10.746;2023-08-12T07:04:23;6.68;;;6.25;;
10013;SDS011;45684;48.358;10.746;2023-08-12T07:06:51;7.53;;;7.05;;
10013;SDS011;45684;48.358;10.746;2023-08-12T07:09:21;7.63;;;7.13;;
10013;SDS011;45684;48.358;10.746;2023-08-12T07:11:49;7.10;;;6.60;;
10013;SDS011;45684;48.358;10.746;2023-08-12T07:14:17;6.70;;;6.30;;
10013;SDS011;45684;48.358;10.746;2023-08-12T07:16:45;6.85;;;6.35;;
10013;SDS011;45684;48.358;10.746;2023-08-12T07:19:12;6.72;;;6.32;;
10013;SDS011;45684;48.358;10.746;2023-08-12T07:21:42;6.80;;;6.30;;
10013;SDS011;45684;48.358;10.746;2023-08-12T07:24:10;7.32;;;6.82;;
10013;SDS011;45684;48.358;10.746;2023-08-12T07:26:40;7.00;;;6.50;;
10013;SDS011;45684;48.358;10.746;2023-08-12T07:29:08;6.95;;;6.55;;
10013;SDS011;45684;48.358;10.746;2023-08-12T07:31:36;6.47;;;6.07;;
10013;SDS011;45684;48.358;10.746;2023-08-12T07:34:04;7.05;;;6.65;;
10013;SDS011;45684;48.358;10.746;2023-08-12T07:36:32;6.45;;;6.10;;
10013;SDS011;45684;48.358;10.746;2023-08-12T07:39:00;6.43;;;6.03;;
10013;SDS011;45684;48.358;10.746;2023-08-12T07:41:28;6.75;;;6.35;;
10013;SDS011;45684;48.358;10.746;2023-08-12T07:43:58;7.10;;;6.60;;
10013;SDS011;45684;48.358;10.746;2023-08-12T07:46:27;6.97;;;6.57;;
10013;SDS011;45684;48.358;10.746;2023-08-12T07:48:55;6.95;;;6.35;;
10013;SDS011;45684;48.358;10.746;2023-08-12T07:51:23;6.60;;;6.20;;
10013;SDS011;45684;48.358;10.746;2023-08-12T07:53:51;7.53;;;7.03;;
10013;SDS011;45684;48.358;10.746;2023-08-12T07:56:19;7.20;;;6.72;;
10013;SDS011;45684;48.358;10.746;2023-08-12T07:58:47;7.40;;;7.00;;
10013;SDS011;45684;48.358;10.746;2023-08-12T08:01:17;7.35;;;6.85;;
10013;SDS011;45684;48.358;10.746;2023-08-12T08:03:44;6.53;;;6.18;;
10013;SDS011;45684;48.358;10.746;2023-08-12T08:06:12;6.90;;;6.40;;
10013;SDS011;45684;48.358;10.746;2023-08-12T08:08:40;6.90;;;6.50;;
10013;SDS011;45684;48.358;10.746;2023-08-12T08:11:08;6.30;;;5.90;;
10013;SDS011;45684;48.358;10.746;2023-08-12T08:13:36;6.30;;;5.90;;
10013;SDS011;45684;48.358;10.746;2023-08-12T08:16:04;6.30;;;6.00;;
10013;SDS011;45684;48.358;10.746;2023-08-12T08:18:33;6.05;;;5.75;;
10013;SDS011;45684;48.358;10.746;2023-08-12T08:21:01;6.10;;;5.68;;
10013;SDS011;45684;48.358;10.746;2023-08-12T08:23:31;6.80;;;6.40;;
10013;SDS011;45684;48.358;10.746;2023-08-12T08:25:59;7.18;;;6.78;;
10013;SDS011;45684;48.358;10.746;2023-08-12T08:28:27;7.60;;;7.10;;
10013;SDS011;45684;48.358;10.746;2023-08-12T08:30:55;7.18;;;6.68;;
10013;SDS011;45684;48.358;10.746;2023-08-12T08:33:23;6.57;;;6.18;;
10013;SDS011;45684;48.358;10.746;2023-08-12T08:35:53;7.03;;;6.60;;
10013;SDS011;45684;48.358;10.746;2023-08-12T08:38:21;6.88;;;6.45;;
10013;SDS011;45684;48.358;10.746;2023-08-12T08:40:48;6.90;;;6.50;;
10013;SDS011;45684;48.358;10.746;2023-08-12T08:43:18;6.45;;;6.13;;
10013;SDS011;45684;48.358;10.746;2023-08-12T08:45:49;7.80;;;7.30;;
10013;SDS011;45684;48.358;10.746;2023-08-12T08:48:19;7.05;;;6.65;;
10013;SDS011;45684;48.358;10.746;2023-08-12T08:50:48;6.78;;;6.22;;
10013;SDS011;45684;48.358;10.746;2023-08-12T08:53:18;6.40;;;6.00;;
10013;SDS011;45684;48.358;10.746;2023-08-12T08:55:47;6.72;;;6.18;;
10013;SDS011;45684;48.358;10.746;2023-08-12T08:58:15;7.50;;;6.32;;
10013;SDS011;45684;48.358;10.746;2023-08-12T09:00:48;7.50;;;6.90;;
10013;SDS011;45684;48.358;10.746;2023-08-12T09:03:16;6.85;;;6.45;;
10013;SDS011;45684;48.358;10.746;2023-08-12T09:05:45;7.25;;;6.75;;
10013;SDS011;45684;48.358;10.746;2023-08-12T09:08:14;6.72;;;6.20;;
10013;SDS011;45684;48.358;10.746;2023-08-12T09:10:44;6.65;;;6.25;;
10013;SDS011;45684;48.358;10.746;2023-08-12T09:13:13;7.28;;;6.70;;
10013;SDS011;45684;48.358;10.746;2023-08-12T09:15:44;6.40;;;5.82;;
10013;SDS011;45684;48.358;10.746;2023-08-12T09:18:12;7.05;;;6.65;;
10013;SDS011;45684;48.358;10.746;2023-08-12T09:20:40;6.30;;;5.90;;
10013;SDS011;45684;48.358;10.746;2023-08-12T09:23:09;7.53;;;7.03;;
10013;SDS011;45684;48.358;10.746;2023-08-12T09:25:41;7.20;;;6.70;;
10013;SDS011;45684;48.358;10.746;2023-08-12T09:28:10;7.30;;;6.70;;
10013;SDS011;45684;48.358;10.746;2023-08-12T09:30:39;7.15;;;6.55;;
10013;SDS011;45684;48.358;10.746;2023-08-12T09:33:07;6.50;;;6.20;;
10013;SDS011;45684;48.358;10.746;2023-08-12T09:35:38;7.13;;;6.60;;
10013;SDS011;45684;48.358;10.746;2023-08-12T09:38:09;8.32;;;7.55;;
10013;SDS011;45684;48.358;10.746;2023-08-12T09:40:39;7.82;;;7.22;;
10013;SDS011;45684;48.358;10.746;2023-08-12T09:43:08;7.50;;;7.10;;
10013;SDS011;45684;48.358;10.746;2023-08-12T09:45:39;7.00;;;6.60;;
10013;SDS011;45684;48.358;10.746;2023-08-12T09:48:08;7.30;;;6.80;;
10013;SDS011;45684;48.358;10.746;2023-08-12T09:50:37;6.82;;;6.22;;
10013;SDS011;45684;48.358;10.746;2023-08-12T09:53:06;7.28;;;6.88;;
10013;SDS011;45684;48.358;10.746;2023-08-12T09:55:35;7.03;;;6.63;;
10013;SDS011;45684;48.358;10.746;2023-08-12T09:58:06;6.70;;;6.20;;
10013;SDS011;45684;48.358;10.746;2023-08-12T10:00:38;6.45;;;6.15;;
10013;SDS011;45684;48.358;10.746;2023-08-12T10:03:09;7.28;;;6.88;;
10013;SDS011;45684;48.358;10.746;2023-08-12T10:05:40;6.90;;;6.50;;
10013;SDS011;45684;48.358;10.746;2023-08-12T10:08:09;6.22;;;5.75;;
10013;SDS011;45684;48.358;10.746;2023-08-12T10:10:40;6.95;;;5.82;;
10013;SDS011;45684;48.358;10.746;2023-08-12T10:13:09;7.07;;;6.68;;
10013;SDS011;45684;48.358;10.746;2023-08-12T10:15:39;6.20;;;5.80;;
10013;SDS011;45684;48.358;10.746;2023-08-12T10:18:08;5.93;;;5.53;;
10013;SDS011;45684;48.358;10.746;2023-08-12T10:20:37;6.70;;;6.20;;
10013;SDS011;45684;48.358;10.746;2023-08-12T10:23:06;6.72;;;6.30;;
10013;SDS011;45684;48.358;10.746;2023-08-12T10:25:35;6.82;;;6.32;;
10013;SDS011;45684;48.358;10.746;2023-08-12T10:28:08;6.80;;;6.30;;
10013;SDS011;45684;48.358;10.746;2023-08-12T10:30:36;6.80;;;6.30;;
10013;SDS011;45684;48.358;10.746;2023-08-12T10:33:05;6.47;;;6.07;;
10013;SDS011;45684;48.358;10.746;2023-08-12T10:35:40;6.50;;;6.10;;
10013;SDS011;45684;48.358;10.746;2023-08-12T10:38:08;6.40;;;5.90;;
10013;SDS011;45684;48.358;10.746;2023-08-12T10:40:38;6.50;;;5.90;;
10013;SDS011;45684;48.358;10.746;2023-08-12T10:43:06;6.32;;;5.82;;
10013;SDS011;45684;48.358;10.746;2023-08-12T10:45:41;5.70;;;5.30;;
10013;SDS011;45684;48.358;10.746;2023-08-12T10:48:16;6.65;;;6.05;;
10013;SDS011;45684;48.358;10.746;2023-08-12T10:50:48;5.65;;;5.30;;
10013;SDS011;45684;48.358;10.746;2023-08-12T10:53:20;6.22;;;5.75;;
10013;SDS011;45684;48.358;10.746;2023-08-12T10:55:57;5.85;;;5.55;;
10013;SDS011;45684;48.358;10.746;2023-08-12T10:58:26;5.72;;;5.43;;
10013;SDS011;45684;48.358;10.746;2023-08-12T11:00:54;6.82;;;6.22;;
10013;SDS011;45684;48.358;10.746;2023-08-12T11:03:25;6.20;;;5.80;;
10013;SDS011;45684;48.358;10.746;2023-08-12T11:05:53;6.35;;;5.82;;
10013;SDS011;45684;48.358;10.746;2023-08-12T11:08:26;6.38;;;5.78;;
10013;SDS011;45684;48.358;10.746;2023-08-12T11:10:55;6.25;;;5.95;;
10013;SDS011;45684;48.358;10.746;2023-08-12T11:13:28;6.50;;;6.10;;
10013;SDS011;45684;48.358;10.746;2023-08-12T11:16:05;6.13;;;5.72;;
10013;SDS011;45684;48.358;10.746;2023-08-12T11:18:36;6.00;;;5.70;;
10013;SDS011;45684;48.358;10.746;2023-08-12T11:21:04;6.53;;;5.93;;
10013;SDS011;45684;48.358;10.746;2023-08-12T11:23:33;6.30;;;5.80;;
10013;SDS011;45684;48.358;10.746;2023-08-12T11:26:03;5.80;;;5.40;;
10013;SDS011;45684;48.358;10.746;2023-08-12T11:28:31;6.00;;;5.47;;
10013;SDS011;45684;48.358;10.746;2023-08-12T11:30:59;5.55;;;5.10;;
10013;SDS011;45684;48.358;10.746;2023-08-12T11:33:28;5.25;;;4.95;;
10013;SDS011;45684;48.358;10.746;2023-08-12T11:35:59;5.35;;;5.05;;
10013;SDS011;45684;48.358;10.746;2023-08-12T11:38:27;5.57;;;5.28;;
10013;SDS011;45684;48.358;10.746;2023-08-12T11:40:55;5.32;;;5.03;;
10013;SDS011;45684;48.358;10.746;2023-08-12T11:43:23;5.50;;;5.00;;
10013;SDS011;45684;48.358;10.746;2023-08-12T11:45:51;5.38;;;5.00;;
10013;SDS011;45684;48.358;10.746;2023-08-12T11:48:18;5.70;;;5.30;;
10013;SDS011;45684;48.358;10.746;2023-08-12T11:50:48;5.45;;;5.05;;
10013;SDS011;45684;48.358;10.746;2023-08-12T11:53:17;5.25;;;4.95;;
10013;SDS011;45684;48.358;10.746;2023-08-12T11:55:45;5.70;;;5.35;;
10013;SDS011;45684;48.358;10.746;2023-08-12T11:58:13;5.53;;;5.22;;
10013;SDS011;45684;48.358;10.746;2023-08-12T12:00:46;5.90;;;5.40;;
10013;SDS011;45684;48.358;10.746;2023-08-12T12:03:15;6.20;;;5.80;;
10013;SDS011;45684;48.358;10.746;2023-08-12T12:05:45;6.07;;;5.72;;
10013;SDS011;45684;48.358;10.746;2023-08-12T12:08:14;7.60;;;5.72;;
10013;SDS011;45684;48.358;10.746;2023-08-12T12:10:43;5.95;;;5.55;;
10013;SDS011;45684;48.358;10.746;2023-08-12T12:13:11;5.63;;;5.32;;
10013;SDS011;45684;48.358;10.746;2023-08-12T12:15:41;6.10;;;5.60;;
10013;SDS011;45684;48.358;10.746;2023-08-12T12:18:10;5.80;;;5.50;;
10013;SDS011;45684;48.358;10.746;2023-08-12T12:20:42;6.25;;;5.95;;
10013;SDS011;45684;48.358;10.746;2023-08-12T12:23:20;6.45;;;6.00;;
10013;SDS011;45684;48.358;10.746;2023-08-12T12:25:56;6.10;;;5.80;;
10013;SDS011;45684;48.358;10.746;2023-08-12T12:28:24;6.63;;;6.10;;
10013;SDS011;45684;48.358;10.746;2023-08-12T12:30:52;6.55;;;5.95;;
10013;SDS011;45684;48.358;10.746;2023-08-12T12:33:20;6.43;;;5.95;;
10013;SDS011;45684;48.358;10.746;2023-08-12T12:35:48;7.00;;;6.55;;
10013;SDS011;45684;48.358;10.746;2023-08-12T12:38:25;6.47;;;6.07;;
10013;SDS011;45684;48.358;10.746;2023-08-12T12:40:54;6.22;;;5.72;;
10013;SDS011;45684;48.358;10.746;2023-08-12T12:43:22;5.75;;;5.28;;
10013;SDS011;45684;48.358;10.746;2023-08-12T12:45:50;5.32;;;4.82;;
10013;SDS011;45684;48.358;10.746;2023-08-12T12:48:18;4.78;;;4.38;;
10013;SDS011;45684;48.358;10.746;2023-08-12T12:50:46;4.78;;;4.40;;
10013;SDS011;45684;48.358;10.746;2023-08-12T12:53:14;4.30;;;4.10;;
10013;SDS011;45684;48.358;10.746;2023-08-12T12:55:42;4.97;;;4.60;;
10013;SDS011;45684;48.358;10.746;2023-08-12T12:58:12;4.80;;;4.60;;
10013;SDS011;45684;48.358;10.746;2023-08-12T13:00:39;5.15;;;4.50;;
10013;SDS011;45684;48.358;10.746;2023-08-12T13:03:07;5.13;;;4.82;;
10013;SDS011;45684;48.358;10.746;2023-08-12T13:05:35;4.80;;;4.50;;
10013;SDS011;45684;48.358;10.746;2023-08-12T13:08:04;4.65;;;4.35;;
10013;SDS011;45684;48.358;10.746;2023-08-12T13:10:32;4.90;;;4.60;;
10013;SDS011;45684;48.358;10.746;2023-08-12T13:13:01;5.28;;;4.97;;
10013;SDS011;45684;48.358;10.746;2023-08-12T13:15:31;5.72;;;5.22;;
10013;SDS011;45684;48.358;10.746;2023-08-12T13:18:01;5.75;;;5.35;;
10013;SDS011;45684;48.358;10.746;2023-08-12T13:20:29;5.78;;;5.38;;
10013;SDS011;45684;48.358;10.746;2023-08-12T13:22:57;6.10;;;5.70;;
10013;SDS011;45684;48.358;10.746;2023-08-12T13:25:25;6.00;;;5.53;;
10013;SDS011;45684;48.358;10.746;2023-08-12T13:27:53;6.28;;;5.65;;
10013;SDS011;45684;48.358;10.746;2023-08-12T13:30:20;5.20;;;4.82;;
10013;SDS011;45684;48.358;10.746;2023-08-12T13:32:50;5.80;;;5.38;;
10013;SDS011;45684;48.358;10.746;2023-08-12T13:35:18;5.18;;;4.78;;
10013;SDS011;45684;48.358;10.746;2023-08-12T13:37:46;5.43;;;5.05;;
10013;SDS011;45684;48.358;10.746;2023-08-12T13:40:14;5.78;;;5.32;;
10013;SDS011;45684;48.358;10.746;2023-08-12T13:42:42;5.28;;;4.80;;
10013;SDS011;45684;48.358;10.746;2023-08-12T13:45:12;5.30;;;4.90;;
10013;SDS011;45684;48.358;10.746;2023-08-12T13:47:40;5.10;;;4.70;;
10013;SDS011;45684;48.358;10.746;2023-08-12T13:50:09;5.60;;;5.20;;
10013;SDS011;45684;48.358;10.746;2023-08-12T13:52:38;5.85;;;5.45;;
10013;SDS011;45684;48.358;10.746;2023-08-12T13:55:06;5.53;;;5.00;;
10013;SDS011;45684;48.358;10.746;2023-08-12T13:57:34;5.78;;;5.40;;
10013;SDS011;45684;48.358;10.746;2023-08-12T14:00:02;6.03;;;5.53;;
10013;SDS011;45684;48.358;10.746;2023-08-12T14:02:41;6.05;;;5.50;;
10013;SDS011;45684;48.358;10.746;2023-08-12T14:05:10;6.22;;;5.70;;
10013;SDS011;45684;48.358;10.746;2023-08-12T14:07:38;5.93;;;5.63;;
10013;SDS011;45684;48.358;10.746;2023-08-12T14:10:07;6.25;;;5.78;;
10013;SDS011;45684;48.358;10.746;2023-08-12T14:12:35;5.78;;;5.28;;
10013;SDS011;45684;48.358;10.746;2023-08-12T14:15:03;6.00;;;5.60;;
10013;SDS011;45684;48.358;10.746;2023-08-12T14:17:32;5.93;;;5.53;;
10013;SDS011;45684;48.358;10.746;2023-08-12T14:20:00;6.30;;;5.80;;
10013;SDS011;45684;48.358;10.746;2023-08-12T14:22:29;5.97;;;5.53;;
10013;SDS011;45684;48.358;10.746;2023-08-12T14:24:57;6.10;;;5.60;;
10013;SDS011;45684;48.358;10.746;2023-08-12T14:27:28;6.30;;;5.90;;
10013;SDS011;45684;48.358;10.746;2023-08-12T14:29:55;5.90;;;5.50;;
10013;SDS011;45684;48.358;10.746;2023-08-12T14:32:23;6.55;;;6.05;;
10013;SDS011;45684;48.358;10.746;2023-08-12T14:34:51;5.88;;;5.57;;
10013;SDS011;45684;48.358;10.746;2023-08-12T14:37:19;6.20;;;5.60;;
10013;SDS011;45684;48.358;10.746;2023-08-12T14:39:48;6.10;;;5.60;;
10013;SDS011;45684;48.358;10.746;2023-08-12T14:42:16;6.20;;;5.70;;